sensor_id;sensor_type;location;lat;lon;timestamp;temperature;humidity
5850;DHT22;2951;47.712;9.400;2023-07-22T00:01:29;17.80;99.90
5850;DHT22;2951;47.712;9.400;2023-07-22T00:03:55;17.80;99.90
5850;DHT22;2951;47.712;9.400;2023-07-22T00:06:22;17.70;99.90
5850;DHT22;2951;47.712;9.400;2023-07-22T00:08:49;17.70;99.90
5850;DHT22;2951;47.712;9.400;2023-07-22T00:11:16;17.60;99.90
5850;DHT22;2951;47.712;9.400;2023-07-22T00:13:42;17.70;99.90
5850;DHT22;2951;47.712;9.400;2023-07-22T00:16:10;17.70;99.90
5850;DHT22;2951;47.712;9.400;2023-07-22T00:18:37;17.70;99.90
5850;DHT22;2951;47.712;9.400;2023-07-22T00:21:04;17.60;99.90
5850;DHT22;2951;47.712;9.400;2023-07-22T00:23:30;17.60;99.90
5850;DHT22;2951;47.712;9.400;2023-07-22T00:25:57;17.50;99.90
5850;DHT22;2951;47.712;9.400;2023-07-22T00:28:24;17.50;99.90
5850;DHT22;2951;47.712;9.400;2023-07-22T00:30:50;17.50;99.90
5850;DHT22;2951;47.712;9.400;2023-07-22T00:33:20;17.50;99.90
5850;DHT22;2951;47.712;9.400;2023-07-22T00:35:47;17.40;99.90
5850;DHT22;2951;47.712;9.400;2023-07-22T00:38:14;17.40;99.90
5850;DHT22;2951;47.712;9.400;2023-07-22T00:40:42;17.40;99.90
5850;DHT22;2951;47.712;9.400;2023-07-22T00:43:10;17.30;99.90
5850;DHT22;2951;47.712;9.400;2023-07-22T00:45:37;17.10;99.90
5850;DHT22;2951;47.712;9.400;2023-07-22T00:48:05;17.00;99.90
5850;DHT22;2951;47.712;9.400;2023-07-22T00:50:32;17.00;99.90
5850;DHT22;2951;47.712;9.400;2023-07-22T00:52:59;16.90;99.90
5850;DHT22;2951;47.712;9.400;2023-07-22T00:55:26;16.80;99.90
5850;DHT22;2951;47.712;9.400;2023-07-22T00:57:54;16.80;99.90
5850;DHT22;2951;47.712;9.400;2023-07-22T01:00:21;16.80;99.90
5850;DHT22;2951;47.712;9.400;2023-07-22T01:02:47;16.70;99.90
5850;DHT22;2951;47.712;9.400;2023-07-22T01:05:15;16.70;99.90
5850;DHT22;2951;47.712;9.400;2023-07-22T01:07:43;16.60;99.90
5850;DHT22;2951;47.712;9.400;2023-07-22T01:10:10;16.60;99.90
5850;DHT22;2951;47.712;9.400;2023-07-22T01:12:37;16.50;99.90
5850;DHT22;2951;47.712;9.400;2023-07-22T01:15:05;16.50;99.90
5850;DHT22;2951;47.712;9.400;2023-07-22T01:17:35;16.40;99.90
5850;DHT22;2951;47.712;9.400;2023-07-22T01:20:02;16.30;99.90
5850;DHT22;2951;47.712;9.400;2023-07-22T01:22:29;16.20;99.90
5850;DHT22;2951;47.712;9.400;2023-07-22T01:24:56;16.20;99.90
5850;DHT22;2951;47.712;9.400;2023-07-22T01:27:23;16.00;99.90
5850;DHT22;2951;47.712;9.400;2023-07-22T01:29:50;16.00;99.90
5850;DHT22;2951;47.712;9.400;2023-07-22T01:32:17;16.00;99.90
5850;DHT22;2951;47.712;9.400;2023-07-22T01:34:43;15.90;99.90
5850;DHT22;2951;47.712;9.400;2023-07-22T01:37:10;15.90;99.90
5850;DHT22;2951;47.712;9.400;2023-07-22T01:39:37;16.00;99.90
5850;DHT22;2951;47.712;9.400;2023-07-22T01:42:04;15.90;99.90
5850;DHT22;2951;47.712;9.400;2023-07-22T01:44:30;15.90;99.90
5850;DHT22;2951;47.712;9.400;2023-07-22T01:46:57;15.90;99.90
5850;DHT22;2951;47.712;9.400;2023-07-22T01:49:24;15.80;99.90
5850;DHT22;2951;47.712;9.400;2023-07-22T01:51:51;15.70;99.90
5850;DHT22;2951;47.712;9.400;2023-07-22T01:54:19;15.70;99.90
5850;DHT22;2951;47.712;9.400;2023-07-22T01:56:45;15.70;99.90
5850;DHT22;2951;47.712;9.400;2023-07-22T01:59:12;15.60;99.90
5850;DHT22;2951;47.712;9.400;2023-07-22T02:01:39;15.60;99.90
5850;DHT22;2951;47.712;9.400;2023-07-22T02:04:06;15.60;99.90
5850;DHT22;2951;47.712;9.400;2023-07-22T02:06:33;15.60;99.90
5850;DHT22;2951;47.712;9.400;2023-07-22T02:09:01;15.60;99.90
5850;DHT22;2951;47.712;9.400;2023-07-22T02:11:35;15.60;99.90
5850;DHT22;2951;47.712;9.400;2023-07-22T02:14:02;15.60;99.90
5850;DHT22;2951;47.712;9.400;2023-07-22T02:16:30;15.70;99.90
5850;DHT22;2951;47.712;9.400;2023-07-22T02:18:56;15.70;99.90
5850;DHT22;2951;47.712;9.400;2023-07-22T02:21:23;15.70;99.90
5850;DHT22;2951;47.712;9.400;2023-07-22T02:23:50;15.70;99.90
5850;DHT22;2951;47.712;9.400;2023-07-22T02:26:16;15.60;99.90
5850;DHT22;2951;47.712;9.400;2023-07-22T02:28:43;15.50;99.90
5850;DHT22;2951;47.712;9.400;2023-07-22T02:31:10;15.50;99.90
5850;DHT22;2951;47.712;9.400;2023-07-22T02:33:37;15.50;99.90
5850;DHT22;2951;47.712;9.400;2023-07-22T02:36:04;15.50;99.90
5850;DHT22;2951;47.712;9.400;2023-07-22T02:38:31;15.40;99.90
5850;DHT22;2951;47.712;9.400;2023-07-22T02:41:01;15.40;99.90
5850;DHT22;2951;47.712;9.400;2023-07-22T02:43:29;15.40;99.90
5850;DHT22;2951;47.712;9.400;2023-07-22T02:45:56;15.40;99.90
5850;DHT22;2951;47.712;9.400;2023-07-22T02:48:22;15.40;99.90
5850;DHT22;2951;47.712;9.400;2023-07-22T02:50:49;15.30;99.90
5850;DHT22;2951;47.712;9.400;2023-07-22T02:53:16;15.40;99.90
5850;DHT22;2951;47.712;9.400;2023-07-22T02:55:43;15.40;99.90
5850;DHT22;2951;47.712;9.400;2023-07-22T02:58:10;15.40;99.90
5850;DHT22;2951;47.712;9.400;2023-07-22T03:00:36;15.30;99.90
5850;DHT22;2951;47.712;9.400;2023-07-22T03:03:03;15.30;99.90
5850;DHT22;2951;47.712;9.400;2023-07-22T03:05:31;15.20;99.90
5850;DHT22;2951;47.712;9.400;2023-07-22T03:07:58;15.10;99.90
5850;DHT22;2951;47.712;9.400;2023-07-22T03:10:25;15.20;99.90
5850;DHT22;2951;47.712;9.400;2023-07-22T03:12:52;15.20;99.90
5850;DHT22;2951;47.712;9.400;2023-07-22T03:15:22;15.00;99.90
5850;DHT22;2951;47.712;9.400;2023-07-22T03:17:49;15.00;99.90
5850;DHT22;2951;47.712;9.400;2023-07-22T03:20:16;15.00;99.90
5850;DHT22;2951;47.712;9.400;2023-07-22T03:22:45;15.00;99.90
5850;DHT22;2951;47.712;9.400;2023-07-22T03:25:12;14.90;99.90
5850;DHT22;2951;47.712;9.400;2023-07-22T03:27:40;14.90;99.90
5850;DHT22;2951;47.712;9.400;2023-07-22T03:30:07;14.90;99.90
5850;DHT22;2951;47.712;9.400;2023-07-22T03:32:34;15.00;99.90
5850;DHT22;2951;47.712;9.400;2023-07-22T03:35:01;14.90;99.90
5850;DHT22;2951;47.712;9.400;2023-07-22T03:37:28;14.90;99.90
5850;DHT22;2951;47.712;9.400;2023-07-22T03:39:55;14.90;99.90
5850;DHT22;2951;47.712;9.400;2023-07-22T03:42:22;15.00;99.90
5850;DHT22;2951;47.712;9.400;2023-07-22T03:44:48;15.00;99.90
5850;DHT22;2951;47.712;9.400;2023-07-22T03:47:15;15.00;99.90
5850;DHT22;2951;47.712;9.400;2023-07-22T03:49:42;14.90;99.90
5850;DHT22;2951;47.712;9.400;2023-07-22T03:52:10;14.90;99.90
5850;DHT22;2951;47.712;9.400;2023-07-22T03:54:40;14.90;99.90
5850;DHT22;2951;47.712;9.400;2023-07-22T03:57:07;14.90;99.90
5850;DHT22;2951;47.712;9.400;2023-07-22T03:59:34;14.80;99.90
5850;DHT22;2951;47.712;9.400;2023-07-22T04:02:00;14.70;99.90
5850;DHT22;2951;47.712;9.400;2023-07-22T04:04:27;14.70;99.90
5850;DHT22;2951;47.712;9.400;2023-07-22T04:06:54;14.70;99.90
5850;DHT22;2951;47.712;9.400;2023-07-22T04:09:21;14.80;99.90
5850;DHT22;2951;47.712;9.400;2023-07-22T04:11:47;14.80;99.90
5850;DHT22;2951;47.712;9.400;2023-07-22T04:14:14;14.80;99.90
5850;DHT22;2951;47.712;9.400;2023-07-22T04:16:42;14.80;99.90
5850;DHT22;2951;47.712;9.400;2023-07-22T04:19:09;14.70;99.90
5850;DHT22;2951;47.712;9.400;2023-07-22T04:21:35;14.60;99.90
5850;DHT22;2951;47.712;9.400;2023-07-22T04:24:02;14.60;99.90
5850;DHT22;2951;47.712;9.400;2023-07-22T04:26:29;14.60;99.90
5850;DHT22;2951;47.712;9.400;2023-07-22T04:28:55;14.60;99.90
5850;DHT22;2951;47.712;9.400;2023-07-22T04:31:22;14.60;99.90
5850;DHT22;2951;47.712;9.400;2023-07-22T04:33:49;14.60;99.90
5850;DHT22;2951;47.712;9.400;2023-07-22T04:36:16;14.60;99.90
5850;DHT22;2951;47.712;9.400;2023-07-22T04:38:43;14.70;99.90
5850;DHT22;2951;47.712;9.400;2023-07-22T04:41:10;14.70;99.90
5850;DHT22;2951;47.712;9.400;2023-07-22T04:43:37;14.80;99.90
5850;DHT22;2951;47.712;9.400;2023-07-22T04:46:06;14.80;99.90
5850;DHT22;2951;47.712;9.400;2023-07-22T04:48:33;14.90;99.90
5850;DHT22;2951;47.712;9.400;2023-07-22T04:51:00;15.00;99.90
5850;DHT22;2951;47.712;9.400;2023-07-22T04:53:27;15.00;99.90
5850;DHT22;2951;47.712;9.400;2023-07-22T04:55:54;15.00;99.90
5850;DHT22;2951;47.712;9.400;2023-07-22T04:58:21;15.00;99.90
5850;DHT22;2951;47.712;9.400;2023-07-22T05:00:48;15.10;99.90
5850;DHT22;2951;47.712;9.400;2023-07-22T05:03:15;15.20;99.90
5850;DHT22;2951;47.712;9.400;2023-07-22T05:05:42;15.10;99.90
5850;DHT22;2951;47.712;9.400;2023-07-22T05:08:09;15.10;99.90
5850;DHT22;2951;47.712;9.400;2023-07-22T05:10:39;15.10;99.90
5850;DHT22;2951;47.712;9.400;2023-07-22T05:13:06;15.20;99.90
5850;DHT22;2951;47.712;9.400;2023-07-22T05:15:32;15.20;99.90
5850;DHT22;2951;47.712;9.400;2023-07-22T05:17:59;15.10;99.90
5850;DHT22;2951;47.712;9.400;2023-07-22T05:20:26;15.10;99.90
5850;DHT22;2951;47.712;9.400;2023-07-22T05:22:52;15.20;99.90
5850;DHT22;2951;47.712;9.400;2023-07-22T05:25:19;15.10;99.90
5850;DHT22;2951;47.712;9.400;2023-07-22T05:27:46;15.10;99.90
5850;DHT22;2951;47.712;9.400;2023-07-22T05:30:12;15.10;99.90
5850;DHT22;2951;47.712;9.400;2023-07-22T05:32:54;15.10;99.90
5850;DHT22;2951;47.712;9.400;2023-07-22T05:35:20;15.10;99.90
5850;DHT22;2951;47.712;9.400;2023-07-22T05:37:47;15.20;99.90
5850;DHT22;2951;47.712;9.400;2023-07-22T05:40:14;15.30;99.90
5850;DHT22;2951;47.712;9.400;2023-07-22T05:42:41;15.20;99.90
5850;DHT22;2951;47.712;9.400;2023-07-22T05:45:08;15.40;99.90
5850;DHT22;2951;47.712;9.400;2023-07-22T05:47:34;15.50;99.90
5850;DHT22;2951;47.712;9.400;2023-07-22T05:50:01;15.60;99.90
5850;DHT22;2951;47.712;9.400;2023-07-22T05:52:30;15.60;99.90
5850;DHT22;2951;47.712;9.400;2023-07-22T05:54:57;15.70;99.90
5850;DHT22;2951;47.712;9.400;2023-07-22T05:57:23;15.70;99.90
5850;DHT22;2951;47.712;9.400;2023-07-22T05:59:50;15.70;99.90
5850;DHT22;2951;47.712;9.400;2023-07-22T06:02:32;15.70;99.90
5850;DHT22;2951;47.712;9.400;2023-07-22T06:04:59;15.80;99.90
5850;DHT22;2951;47.712;9.400;2023-07-22T06:07:26;15.80;99.90
5850;DHT22;2951;47.712;9.400;2023-07-22T06:09:52;15.90;99.90
5850;DHT22;2951;47.712;9.400;2023-07-22T06:12:19;16.00;99.90
5850;DHT22;2951;47.712;9.400;2023-07-22T06:14:46;16.10;99.90
5850;DHT22;2951;47.712;9.400;2023-07-22T06:17:13;16.10;99.90
5850;DHT22;2951;47.712;9.400;2023-07-22T06:19:40;16.10;99.90
5850;DHT22;2951;47.712;9.400;2023-07-22T06:22:07;16.20;99.90
5850;DHT22;2951;47.712;9.400;2023-07-22T06:24:33;16.20;99.90
5850;DHT22;2951;47.712;9.400;2023-07-22T06:27:00;16.20;99.90
5850;DHT22;2951;47.712;9.400;2023-07-22T06:29:27;16.30;99.90
5850;DHT22;2951;47.712;9.400;2023-07-22T06:31:54;16.40;99.90
5850;DHT22;2951;47.712;9.400;2023-07-22T06:34:21;16.40;99.90
5850;DHT22;2951;47.712;9.400;2023-07-22T06:36:47;16.30;99.90
5850;DHT22;2951;47.712;9.400;2023-07-22T06:39:14;16.40;99.90
5850;DHT22;2951;47.712;9.400;2023-07-22T06:41:41;16.50;99.90
5850;DHT22;2951;47.712;9.400;2023-07-22T06:44:08;16.70;99.90
5850;DHT22;2951;47.712;9.400;2023-07-22T06:46:34;16.80;99.90
5850;DHT22;2951;47.712;9.400;2023-07-22T06:49:01;17.00;99.90
5850;DHT22;2951;47.712;9.400;2023-07-22T06:51:29;17.10;99.90
5850;DHT22;2951;47.712;9.400;2023-07-22T06:53:56;17.20;99.90
5850;DHT22;2951;47.712;9.400;2023-07-22T06:56:22;17.20;99.90
5850;DHT22;2951;47.712;9.400;2023-07-22T06:58:49;17.40;99.90
5850;DHT22;2951;47.712;9.400;2023-07-22T07:01:17;17.50;99.90
5850;DHT22;2951;47.712;9.400;2023-07-22T07:03:44;17.70;99.90
5850;DHT22;2951;47.712;9.400;2023-07-22T07:06:11;17.80;99.90
5850;DHT22;2951;47.712;9.400;2023-07-22T07:08:38;17.90;99.90
5850;DHT22;2951;47.712;9.400;2023-07-22T07:11:06;18.10;99.90
5850;DHT22;2951;47.712;9.400;2023-07-22T07:13:33;18.30;99.90
5850;DHT22;2951;47.712;9.400;2023-07-22T07:16:19;18.50;99.90
5850;DHT22;2951;47.712;9.400;2023-07-22T07:18:46;18.50;99.90
5850;DHT22;2951;47.712;9.400;2023-07-22T07:21:13;18.50;99.90
5850;DHT22;2951;47.712;9.400;2023-07-22T07:23:39;18.70;99.90
5850;DHT22;2951;47.712;9.400;2023-07-22T07:26:06;18.80;99.90
5850;DHT22;2951;47.712;9.400;2023-07-22T07:28:33;19.00;99.90
5850;DHT22;2951;47.712;9.400;2023-07-22T07:30:59;19.10;99.90
5850;DHT22;2951;47.712;9.400;2023-07-22T07:33:26;19.20;99.90
5850;DHT22;2951;47.712;9.400;2023-07-22T07:35:53;19.40;99.90
5850;DHT22;2951;47.712;9.400;2023-07-22T07:38:19;19.60;99.90
5850;DHT22;2951;47.712;9.400;2023-07-22T07:40:46;19.70;99.90
5850;DHT22;2951;47.712;9.400;2023-07-22T07:43:13;19.90;99.90
5850;DHT22;2951;47.712;9.400;2023-07-22T07:45:40;20.00;99.90
5850;DHT22;2951;47.712;9.400;2023-07-22T07:48:06;20.20;99.90
5850;DHT22;2951;47.712;9.400;2023-07-22T07:50:34;20.20;99.90
5850;DHT22;2951;47.712;9.400;2023-07-22T07:53:00;20.40;99.90
5850;DHT22;2951;47.712;9.400;2023-07-22T07:55:27;20.30;99.90
5850;DHT22;2951;47.712;9.400;2023-07-22T07:57:54;20.50;99.90
5850;DHT22;2951;47.712;9.400;2023-07-22T08:00:21;20.50;99.90
5850;DHT22;2951;47.712;9.400;2023-07-22T08:02:47;20.50;99.90
5850;DHT22;2951;47.712;9.400;2023-07-22T08:05:14;20.70;99.90
5850;DHT22;2951;47.712;9.400;2023-07-22T08:07:41;20.70;99.90
5850;DHT22;2951;47.712;9.400;2023-07-22T08:10:08;20.70;99.90
5850;DHT22;2951;47.712;9.400;2023-07-22T08:12:36;20.70;99.90
5850;DHT22;2951;47.712;9.400;2023-07-22T08:15:03;20.90;99.90
5850;DHT22;2951;47.712;9.400;2023-07-22T08:17:30;20.80;99.90
5850;DHT22;2951;47.712;9.400;2023-07-22T08:19:57;20.50;99.90
5850;DHT22;2951;47.712;9.400;2023-07-22T08:22:24;20.60;99.90
5850;DHT22;2951;47.712;9.400;2023-07-22T08:24:50;20.70;99.90
5850;DHT22;2951;47.712;9.400;2023-07-22T08:27:17;20.80;99.90
5850;DHT22;2951;47.712;9.400;2023-07-22T08:29:44;20.80;99.90
5850;DHT22;2951;47.712;9.400;2023-07-22T08:32:11;20.90;99.90
5850;DHT22;2951;47.712;9.400;2023-07-22T08:34:37;20.80;99.90
5850;DHT22;2951;47.712;9.400;2023-07-22T08:37:04;20.90;99.90
5850;DHT22;2951;47.712;9.400;2023-07-22T08:39:31;20.90;99.90
5850;DHT22;2951;47.712;9.400;2023-07-22T08:41:58;20.80;99.90
5850;DHT22;2951;47.712;9.400;2023-07-22T08:44:27;20.80;99.90
5850;DHT22;2951;47.712;9.400;2023-07-22T08:46:56;21.00;99.90
5850;DHT22;2951;47.712;9.400;2023-07-22T08:49:26;21.50;99.90
5850;DHT22;2951;47.712;9.400;2023-07-22T08:51:53;21.80;99.90
5850;DHT22;2951;47.712;9.400;2023-07-22T08:54:20;21.80;99.90
5850;DHT22;2951;47.712;9.400;2023-07-22T08:56:48;21.70;99.90
5850;DHT22;2951;47.712;9.400;2023-07-22T08:59:19;21.60;99.90
5850;DHT22;2951;47.712;9.400;2023-07-22T09:01:47;21.60;99.90
5850;DHT22;2951;47.712;9.400;2023-07-22T09:04:14;21.60;99.90
5850;DHT22;2951;47.712;9.400;2023-07-22T09:06:41;21.80;99.90
5850;DHT22;2951;47.712;9.400;2023-07-22T09:09:08;21.60;99.90
5850;DHT22;2951;47.712;9.400;2023-07-22T09:11:36;21.50;99.90
5850;DHT22;2951;47.712;9.400;2023-07-22T09:14:03;21.70;99.90
5850;DHT22;2951;47.712;9.400;2023-07-22T09:16:32;22.00;99.90
5850;DHT22;2951;47.712;9.400;2023-07-22T09:18:59;21.90;99.90
5850;DHT22;2951;47.712;9.400;2023-07-22T09:21:26;22.00;99.90
5850;DHT22;2951;47.712;9.400;2023-07-22T09:23:54;22.00;99.90
5850;DHT22;2951;47.712;9.400;2023-07-22T09:26:21;21.90;99.90
5850;DHT22;2951;47.712;9.400;2023-07-22T09:31:14;22.00;99.90
5850;DHT22;2951;47.712;9.400;2023-07-22T09:33:41;21.90;99.90
5850;DHT22;2951;47.712;9.400;2023-07-22T09:36:09;22.10;99.90
5850;DHT22;2951;47.712;9.400;2023-07-22T09:38:36;22.10;99.90
5850;DHT22;2951;47.712;9.400;2023-07-22T09:41:03;22.20;99.90
5850;DHT22;2951;47.712;9.400;2023-07-22T09:43:30;22.30;99.90
5850;DHT22;2951;47.712;9.400;2023-07-22T09:46:05;22.40;99.90
5850;DHT22;2951;47.712;9.400;2023-07-22T09:48:40;23.00;99.90
5850;DHT22;2951;47.712;9.400;2023-07-22T09:51:11;23.20;99.90
5850;DHT22;2951;47.712;9.400;2023-07-22T09:53:37;23.00;99.90
5850;DHT22;2951;47.712;9.400;2023-07-22T09:56:04;23.20;99.90
5850;DHT22;2951;47.712;9.400;2023-07-22T09:58:31;23.50;99.90
5850;DHT22;2951;47.712;9.400;2023-07-22T10:00:58;23.20;99.90
5850;DHT22;2951;47.712;9.400;2023-07-22T10:03:28;22.90;99.90
5850;DHT22;2951;47.712;9.400;2023-07-22T10:05:55;22.50;99.90
5850;DHT22;2951;47.712;9.400;2023-07-22T10:08:24;22.50;99.90
5850;DHT22;2951;47.712;9.400;2023-07-22T10:10:51;22.60;99.90
5850;DHT22;2951;47.712;9.400;2023-07-22T10:13:19;22.90;99.90
5850;DHT22;2951;47.712;9.400;2023-07-22T10:15:46;22.90;99.90
5850;DHT22;2951;47.712;9.400;2023-07-22T10:18:14;22.90;99.90
5850;DHT22;2951;47.712;9.400;2023-07-22T10:20:43;23.20;99.90
5850;DHT22;2951;47.712;9.400;2023-07-22T10:23:10;23.60;99.90
5850;DHT22;2951;47.712;9.400;2023-07-22T10:25:40;23.40;99.90
5850;DHT22;2951;47.712;9.400;2023-07-22T10:28:07;23.70;99.90
5850;DHT22;2951;47.712;9.400;2023-07-22T10:30:34;23.50;99.90
5850;DHT22;2951;47.712;9.400;2023-07-22T10:33:01;23.10;99.90
5850;DHT22;2951;47.712;9.400;2023-07-22T10:38:08;22.90;99.90
5850;DHT22;2951;47.712;9.400;2023-07-22T10:40:46;22.90;99.90
5850;DHT22;2951;47.712;9.400;2023-07-22T10:43:15;23.50;99.90
5850;DHT22;2951;47.712;9.400;2023-07-22T10:45:43;23.90;99.90
5850;DHT22;2951;47.712;9.400;2023-07-22T10:48:11;23.40;99.90
5850;DHT22;2951;47.712;9.400;2023-07-22T10:50:39;23.50;99.90
5850;DHT22;2951;47.712;9.400;2023-07-22T10:53:10;23.40;99.90
5850;DHT22;2951;47.712;9.400;2023-07-22T10:58:23;23.20;99.90
5850;DHT22;2951;47.712;9.400;2023-07-22T11:00:50;23.50;99.90
5850;DHT22;2951;47.712;9.400;2023-07-22T11:03:18;23.70;99.90
5850;DHT22;2951;47.712;9.400;2023-07-22T11:05:49;24.20;99.90
5850;DHT22;2951;47.712;9.400;2023-07-22T11:08:17;24.30;99.90
5850;DHT22;2951;47.712;9.400;2023-07-22T11:10:53;24.30;99.90
5850;DHT22;2951;47.712;9.400;2023-07-22T11:13:26;23.90;99.90
5850;DHT22;2951;47.712;9.400;2023-07-22T11:15:57;23.30;99.90
5850;DHT22;2951;47.712;9.400;2023-07-22T11:18:35;23.50;99.90
5850;DHT22;2951;47.712;9.400;2023-07-22T11:21:01;23.50;99.90
5850;DHT22;2951;47.712;9.400;2023-07-22T11:23:28;23.50;99.90
5850;DHT22;2951;47.712;9.400;2023-07-22T11:25:55;23.60;99.90
5850;DHT22;2951;47.712;9.400;2023-07-22T11:28:21;23.60;99.90
5850;DHT22;2951;47.712;9.400;2023-07-22T11:30:48;23.70;99.90
5850;DHT22;2951;47.712;9.400;2023-07-22T11:33:15;23.60;99.90
5850;DHT22;2951;47.712;9.400;2023-07-22T11:35:42;23.70;99.90
5850;DHT22;2951;47.712;9.400;2023-07-22T11:38:11;23.70;99.90
5850;DHT22;2951;47.712;9.400;2023-07-22T11:40:38;23.90;99.90
5850;DHT22;2951;47.712;9.400;2023-07-22T11:43:05;23.60;99.90
5850;DHT22;2951;47.712;9.400;2023-07-22T11:45:32;23.60;99.90
5850;DHT22;2951;47.712;9.400;2023-07-22T11:47:58;23.50;99.90
5850;DHT22;2951;47.712;9.400;2023-07-22T11:50:32;23.90;99.90
5850;DHT22;2951;47.712;9.400;2023-07-22T11:52:59;23.90;99.90
5850;DHT22;2951;47.712;9.400;2023-07-22T11:55:26;24.00;99.90
5850;DHT22;2951;47.712;9.400;2023-07-22T11:58:02;24.30;99.90
5850;DHT22;2951;47.712;9.400;2023-07-22T12:00:30;24.40;99.90
5850;DHT22;2951;47.712;9.400;2023-07-22T12:02:56;24.20;99.90
5850;DHT22;2951;47.712;9.400;2023-07-22T12:05:25;24.40;99.90
5850;DHT22;2951;47.712;9.400;2023-07-22T12:07:52;24.30;99.90
5850;DHT22;2951;47.712;9.400;2023-07-22T12:10:18;24.30;99.90
5850;DHT22;2951;47.712;9.400;2023-07-22T12:12:45;24.60;99.90
5850;DHT22;2951;47.712;9.400;2023-07-22T12:15:14;24.30;99.90
5850;DHT22;2951;47.712;9.400;2023-07-22T12:20:14;24.60;99.90
5850;DHT22;2951;47.712;9.400;2023-07-22T12:22:41;24.80;99.90
5850;DHT22;2951;47.712;9.400;2023-07-22T12:25:09;25.00;99.90
5850;DHT22;2951;47.712;9.400;2023-07-22T12:27:37;25.10;99.90
5850;DHT22;2951;47.712;9.400;2023-07-22T12:30:04;25.00;99.90
5850;DHT22;2951;47.712;9.400;2023-07-22T12:32:32;25.00;99.90
5850;DHT22;2951;47.712;9.400;2023-07-22T12:34:59;24.80;99.90
5850;DHT22;2951;47.712;9.400;2023-07-22T12:37:26;25.00;99.90
5850;DHT22;2951;47.712;9.400;2023-07-22T12:39:56;25.20;99.90
5850;DHT22;2951;47.712;9.400;2023-07-22T12:42:23;25.50;99.90
5850;DHT22;2951;47.712;9.400;2023-07-22T12:44:49;25.10;99.90
5850;DHT22;2951;47.712;9.400;2023-07-22T12:47:16;24.80;99.90
5850;DHT22;2951;47.712;9.400;2023-07-22T12:49:43;24.60;99.90
5850;DHT22;2951;47.712;9.400;2023-07-22T12:52:09;24.70;99.90
5850;DHT22;2951;47.712;9.400;2023-07-22T12:54:37;25.30;99.90
5850;DHT22;2951;47.712;9.400;2023-07-22T12:57:04;25.60;99.90
5850;DHT22;2951;47.712;9.400;2023-07-22T12:59:31;25.50;99.90
5850;DHT22;2951;47.712;9.400;2023-07-22T13:01:58;25.60;99.90
5850;DHT22;2951;47.712;9.400;2023-07-22T13:04:24;25.60;99.90
5850;DHT22;2951;47.712;9.400;2023-07-22T13:06:51;26.10;99.90
5850;DHT22;2951;47.712;9.400;2023-07-22T13:09:18;25.60;99.90
5850;DHT22;2951;47.712;9.400;2023-07-22T13:11:45;25.40;99.90
5850;DHT22;2951;47.712;9.400;2023-07-22T13:14:12;25.60;99.90
5850;DHT22;2951;47.712;9.400;2023-07-22T13:16:39;25.70;99.90
5850;DHT22;2951;47.712;9.400;2023-07-22T13:19:05;25.90;99.90
5850;DHT22;2951;47.712;9.400;2023-07-22T13:21:32;25.50;99.90
5850;DHT22;2951;47.712;9.400;2023-07-22T13:23:59;25.30;99.90
5850;DHT22;2951;47.712;9.400;2023-07-22T13:26:26;25.50;99.90
5850;DHT22;2951;47.712;9.400;2023-07-22T13:28:52;25.70;99.90
5850;DHT22;2951;47.712;9.400;2023-07-22T13:31:19;25.80;99.90
5850;DHT22;2951;47.712;9.400;2023-07-22T13:33:46;26.10;99.90
5850;DHT22;2951;47.712;9.400;2023-07-22T13:36:13;26.10;99.90
5850;DHT22;2951;47.712;9.400;2023-07-22T13:38:40;26.30;99.90
5850;DHT22;2951;47.712;9.400;2023-07-22T13:41:07;25.90;99.90
5850;DHT22;2951;47.712;9.400;2023-07-22T13:43:34;25.90;99.90
5850;DHT22;2951;47.712;9.400;2023-07-22T13:46:01;25.90;99.90
5850;DHT22;2951;47.712;9.400;2023-07-22T13:48:28;26.00;99.90
5850;DHT22;2951;47.712;9.400;2023-07-22T13:50:54;26.10;99.90
5850;DHT22;2951;47.712;9.400;2023-07-22T13:53:21;26.00;99.90
5850;DHT22;2951;47.712;9.400;2023-07-22T13:55:48;26.50;99.90
5850;DHT22;2951;47.712;9.400;2023-07-22T13:58:18;26.50;99.90
5850;DHT22;2951;47.712;9.400;2023-07-22T14:00:44;26.80;99.90
5850;DHT22;2951;47.712;9.400;2023-07-22T14:03:11;26.90;99.90
5850;DHT22;2951;47.712;9.400;2023-07-22T14:05:38;26.80;99.90
5850;DHT22;2951;47.712;9.400;2023-07-22T14:08:05;26.90;99.90
5850;DHT22;2951;47.712;9.400;2023-07-22T14:10:31;27.60;99.90
5850;DHT22;2951;47.712;9.400;2023-07-22T14:12:58;27.50;99.90
5850;DHT22;2951;47.712;9.400;2023-07-22T14:15:25;27.80;99.90
5850;DHT22;2951;47.712;9.400;2023-07-22T14:17:52;28.10;99.90
5850;DHT22;2951;47.712;9.400;2023-07-22T14:20:18;28.30;99.90
5850;DHT22;2951;47.712;9.400;2023-07-22T14:22:46;28.60;99.90
5850;DHT22;2951;47.712;9.400;2023-07-22T14:25:13;28.50;99.90
5850;DHT22;2951;47.712;9.400;2023-07-22T14:27:39;28.60;99.90
5850;DHT22;2951;47.712;9.400;2023-07-22T14:30:07;28.60;99.90
5850;DHT22;2951;47.712;9.400;2023-07-22T14:32:34;28.80;99.90
5850;DHT22;2951;47.712;9.400;2023-07-22T14:35:01;28.70;99.90
5850;DHT22;2951;47.712;9.400;2023-07-22T14:37:29;28.90;99.90
5850;DHT22;2951;47.712;9.400;2023-07-22T14:39:56;28.70;99.90
5850;DHT22;2951;47.712;9.400;2023-07-22T14:42:22;28.90;99.90
5850;DHT22;2951;47.712;9.400;2023-07-22T14:44:49;29.00;99.90
5850;DHT22;2951;47.712;9.400;2023-07-22T14:47:16;29.00;99.90
5850;DHT22;2951;47.712;9.400;2023-07-22T14:49:42;29.10;99.90
5850;DHT22;2951;47.712;9.400;2023-07-22T14:52:09;29.30;99.90
5850;DHT22;2951;47.712;9.400;2023-07-22T14:54:36;29.40;99.90
5850;DHT22;2951;47.712;9.400;2023-07-22T14:57:03;29.10;99.90
5850;DHT22;2951;47.712;9.400;2023-07-22T14:59:29;29.50;99.90
5850;DHT22;2951;47.712;9.400;2023-07-22T15:01:56;29.20;99.90
5850;DHT22;2951;47.712;9.400;2023-07-22T15:04:23;29.00;99.90
5850;DHT22;2951;47.712;9.400;2023-07-22T15:06:49;29.50;99.90
5850;DHT22;2951;47.712;9.400;2023-07-22T15:09:16;29.90;99.90
5850;DHT22;2951;47.712;9.400;2023-07-22T15:11:43;30.60;99.90
5850;DHT22;2951;47.712;9.400;2023-07-22T15:14:09;30.20;99.90
5850;DHT22;2951;47.712;9.400;2023-07-22T15:16:37;30.50;99.90
5850;DHT22;2951;47.712;9.400;2023-07-22T15:19:04;30.40;99.90
5850;DHT22;2951;47.712;9.400;2023-07-22T15:21:30;30.10;99.90
5850;DHT22;2951;47.712;9.400;2023-07-22T15:23:57;29.90;99.90
5850;DHT22;2951;47.712;9.400;2023-07-22T15:26:24;29.80;99.90
5850;DHT22;2951;47.712;9.400;2023-07-22T15:28:51;30.00;99.90
5850;DHT22;2951;47.712;9.400;2023-07-22T15:31:18;30.80;99.90
5850;DHT22;2951;47.712;9.400;2023-07-22T15:33:45;31.20;99.90
5850;DHT22;2951;47.712;9.400;2023-07-22T15:36:12;30.80;99.90
5850;DHT22;2951;47.712;9.400;2023-07-22T15:38:38;31.80;99.90
5850;DHT22;2951;47.712;9.400;2023-07-22T15:41:05;31.90;99.90
5850;DHT22;2951;47.712;9.400;2023-07-22T15:43:32;31.90;99.90
5850;DHT22;2951;47.712;9.400;2023-07-22T15:45:59;31.90;99.90
5850;DHT22;2951;47.712;9.400;2023-07-22T15:48:25;32.40;99.90
5850;DHT22;2951;47.712;9.400;2023-07-22T15:50:52;32.40;99.90
5850;DHT22;2951;47.712;9.400;2023-07-22T15:53:21;32.50;99.90
5850;DHT22;2951;47.712;9.400;2023-07-22T15:55:48;32.90;99.90
5850;DHT22;2951;47.712;9.400;2023-07-22T15:58:16;32.90;99.90
5850;DHT22;2951;47.712;9.400;2023-07-22T16:00:43;32.00;99.90
5850;DHT22;2951;47.712;9.400;2023-07-22T16:03:10;32.00;99.90
5850;DHT22;2951;47.712;9.400;2023-07-22T16:05:37;32.00;99.90
5850;DHT22;2951;47.712;9.400;2023-07-22T16:08:04;32.90;99.90
5850;DHT22;2951;47.712;9.400;2023-07-22T16:10:31;32.50;99.90
5850;DHT22;2951;47.712;9.400;2023-07-22T16:12:58;32.40;99.90